createdAt,value
2023-04-27T00:02:13.374Z,101336.16
2023-04-27T00:04:40.146Z,101331.56
2023-04-27T00:07:06.642Z,101331.41
2023-04-27T00:09:32.986Z,101332.03
2023-04-27T00:11:59.336Z,101321.06
2023-04-27T00:14:28.529Z,101328.13
2023-04-27T00:16:55.776Z,101327.94
2023-04-27T00:19:22.963Z,101325.81
2023-04-27T00:21:49.403Z,101326.16
2023-04-27T00:24:15.870Z,101324.81
2023-04-27T00:26:42.466Z,101324.69
2023-04-27T00:29:08.928Z,101326.94
2023-04-27T00:31:35.537Z,101326.47
2023-04-27T00:34:02.897Z,101329.06
2023-04-27T00:36:29.287Z,101325.81
2023-04-27T00:38:55.706Z,101332.00
2023-04-27T00:41:23.017Z,101326.59
2023-04-27T00:43:49.523Z,101328.91
2023-04-27T00:46:16.928Z,101334.63
2023-04-27T00:48:44.409Z,101338.03
2023-04-27T00:51:10.849Z,101342.28
2023-04-27T00:53:37.933Z,101343.25
2023-04-27T00:56:06.488Z,101342.28
2023-04-27T00:58:33.166Z,101344.22
2023-04-27T01:01:00.412Z,101342.56
2023-04-27T01:03:27.226Z,101347.13
2023-04-27T01:05:53.909Z,101345.84
2023-04-27T01:08:20.600Z,101344.50
2023-04-27T01:10:46.974Z,101355.47
2023-04-27T01:13:13.427Z,101349.09
2023-04-27T01:15:41.058Z,101346.63
2023-04-27T01:18:07.781Z,101346.13
2023-04-27T01:20:34.211Z,101355.63
2023-04-27T01:23:01.065Z,101367.03
2023-04-27T01:25:27.489Z,101367.69
2023-04-27T01:27:54.366Z,101368.31
2023-04-27T01:30:22.815Z,101374.19
2023-04-27T01:32:49.898Z,101370.88
2023-04-27T01:35:16.660Z,101377.25
2023-04-27T01:37:43.251Z,101377.91
2023-04-27T01:40:10.707Z,101386.88
2023-04-27T01:42:37.158Z,101372.16
2023-04-27T01:45:04.116Z,101378.06
2023-04-27T01:47:30.658Z,101381.66
2023-04-27T01:49:57.014Z,101380.00
2023-04-27T01:52:23.505Z,101380.81
2023-04-27T01:54:50.056Z,101382.47
2023-04-27T01:57:16.650Z,101386.88
2023-04-27T01:59:43.275Z,101385.72
2023-04-27T02:02:09.668Z,101385.72
2023-04-27T02:04:36.684Z,101388.50
2023-04-27T02:07:03.440Z,101392.94
2023-04-27T02:09:29.765Z,101390.66
2023-04-27T02:11:56.097Z,101390.66
2023-04-27T02:14:22.711Z,101397.22
2023-04-27T02:16:49.141Z,101397.22
2023-04-27T02:19:15.722Z,101395.25
2023-04-27T02:21:42.694Z,101398.88
2023-04-27T02:24:09.955Z,101398.88
2023-04-27T02:26:36.617Z,101390.84
2023-04-27T02:29:03.838Z,101388.88
2023-04-27T02:31:31.144Z,101397.22
2023-04-27T02:33:57.541Z,101399.19
2023-04-27T02:36:24.166Z,101392.81
2023-04-27T02:38:50.608Z,101392.81
2023-04-27T02:41:16.954Z,101391.13
2023-04-27T02:43:43.298Z,101390.31
2023-04-27T02:46:09.661Z,101390.66
2023-04-27T02:48:36.086Z,101393.75
2023-04-27T02:51:06.224Z,101388.00
2023-04-27T02:53:32.965Z,101386.38
2023-04-27T02:55:59.436Z,101380.31
2023-04-27T02:58:26.319Z,101375.09
2023-04-27T03:00:56.816Z,101383.22
2023-04-27T03:03:24.183Z,101381.25
2023-04-27T03:05:50.856Z,101380.78
2023-04-27T03:08:17.267Z,101382.22
2023-04-27T03:10:43.638Z,101384.50
2023-04-27T03:13:09.985Z,101387.09
2023-04-27T03:15:36.384Z,101377.47
2023-04-27T03:18:02.867Z,101376.44
2023-04-27T03:20:29.206Z,101381.00
2023-04-27T03:22:55.609Z,101376.59
2023-04-27T03:25:22.298Z,101367.56
2023-04-27T03:27:48.728Z,101370.66
2023-04-27T03:30:15.273Z,101373.56
2023-04-27T03:32:41.863Z,101367.00
2023-04-27T03:35:09.709Z,101360.47
2023-04-27T03:37:36.204Z,101372.81
2023-04-27T03:40:02.686Z,101376.53
2023-04-27T03:42:29.549Z,101372.25
2023-04-27T03:44:56.146Z,101375.63
2023-04-27T03:47:22.703Z,101367.44
2023-04-27T03:49:49.316Z,101375.59
2023-04-27T03:52:15.640Z,101377.84
2023-04-27T03:54:41.986Z,101388.44
2023-04-27T03:57:08.410Z,101381.06
2023-04-27T03:59:34.992Z,101388.03
2023-04-27T04:02:02.244Z,101394.53
2023-04-27T04:04:29.007Z,101407.41
2023-04-27T04:06:55.502Z,101403.28
2023-04-27T04:09:23.849Z,101404.72
2023-04-27T04:11:52.508Z,101399.81
2023-04-27T04:14:18.805Z,101406.50
2023-04-27T04:16:45.513Z,101399.59
2023-04-27T04:19:12.073Z,101401.06
2023-04-27T04:21:38.627Z,101413.78
2023-04-27T04:24:05.859Z,101418.00
2023-04-27T04:26:32.646Z,101421.09
2023-04-27T04:28:59.224Z,101423.03
2023-04-27T04:31:26.376Z,101423.34
2023-04-27T04:33:53.084Z,101422.81
2023-04-27T04:36:19.667Z,101423.16
2023-04-27T04:38:45.991Z,101424.28
2023-04-27T04:41:12.332Z,101415.44
2023-04-27T04:43:38.876Z,101419.66
2023-04-27T04:46:06.286Z,101422.94
2023-04-27T04:48:32.947Z,101423.75
2023-04-27T04:50:59.524Z,101432.88
2023-04-27T04:53:26.185Z,101429.84
2023-04-27T04:55:52.763Z,101428.38
2023-04-27T04:58:19.326Z,101423.66
2023-04-27T05:00:45.764Z,101428.59
2023-04-27T05:03:12.242Z,101435.44
2023-04-27T05:05:38.884Z,101423.75
2023-04-27T05:08:05.473Z,101422.31
2023-04-27T05:10:32.100Z,101425.25
2023-04-27T05:12:58.499Z,101419.94
2023-04-27T05:15:25.128Z,101427.63
2023-04-27T05:17:51.809Z,101421.44
2023-04-27T05:20:18.404Z,101421.66
2023-04-27T05:22:44.750Z,101434.78
2023-04-27T05:25:11.387Z,101428.78
2023-04-27T05:27:37.699Z,101437.19
2023-04-27T05:30:04.521Z,101438.09
2023-04-27T05:32:31.268Z,101442.59
2023-04-27T05:34:57.639Z,101439.56
2023-04-27T05:37:24.024Z,101440.94
2023-04-27T05:39:50.655Z,101440.69
2023-04-27T05:42:17.254Z,101450.69
2023-04-27T05:44:43.785Z,101446.03
2023-04-27T05:47:10.633Z,101451.97
2023-04-27T05:49:37.489Z,101448.13
2023-04-27T05:52:04.573Z,101456.81
2023-04-27T05:54:31.015Z,101460.78
2023-04-27T05:56:57.838Z,101453.94
2023-04-27T05:59:24.261Z,101465.41
2023-04-27T06:01:51.794Z,101468.88
2023-04-27T06:04:18.587Z,101475.94
2023-04-27T06:06:45.154Z,101473.81
2023-04-27T06:09:11.972Z,101468.13
2023-04-27T06:11:39.476Z,101467.16
2023-04-27T06:14:05.868Z,101480.91
2023-04-27T06:16:32.276Z,101469.63
2023-04-27T06:18:58.877Z,101471.78
2023-04-27T06:21:25.297Z,101471.97
2023-04-27T06:23:51.634Z,101472.94
2023-04-27T06:26:17.973Z,101470.84
2023-04-27T06:28:44.671Z,101480.50
2023-04-27T06:31:11.077Z,101475.59
2023-04-27T06:33:37.447Z,101481.81
2023-04-27T06:36:03.938Z,101482.00
2023-04-27T06:38:30.949Z,101481.84
2023-04-27T06:40:57.348Z,101482.00
2023-04-27T06:43:23.739Z,101484.63
2023-04-27T06:45:50.425Z,101494.31
2023-04-27T06:48:17.270Z,101486.94
2023-04-27T06:50:43.823Z,101483.97
2023-04-27T06:53:10.702Z,101491.34
2023-04-27T06:55:37.066Z,101490.09
2023-04-27T06:58:03.869Z,101484.38
2023-04-27T07:00:31.411Z,101481.41
2023-04-27T07:02:58.159Z,101480.44
2023-04-27T07:05:24.593Z,101475.50
2023-04-27T07:07:51.145Z,101476.97
2023-04-27T07:10:17.651Z,101470.88
2023-04-27T07:12:44.216Z,101474.34
2023-04-27T07:15:10.924Z,101473.03
2023-04-27T07:17:44.733Z,101466.94
2023-04-27T07:20:11.481Z,101474.47
2023-04-27T07:22:37.927Z,101469.19
2023-04-27T07:25:06.195Z,101463.94
2023-04-27T07:27:32.922Z,101459.97
2023-04-27T07:29:59.475Z,101456.81
2023-04-27T07:32:26.173Z,101456.44
2023-04-27T07:34:55.511Z,101460.00
2023-04-27T07:37:23.220Z,101456.50
2023-04-27T07:39:53.847Z,101451.84
2023-04-27T07:42:22.413Z,101453.94
2023-04-27T07:44:50.609Z,101453.66
2023-04-27T07:47:18.847Z,101460.63
2023-04-27T07:49:47.143Z,101453.59
2023-04-27T07:52:14.086Z,101455.59
2023-04-27T07:54:40.704Z,101454.94
2023-04-27T07:57:13.681Z,101457.47
2023-04-27T07:59:42.208Z,101460.06
2023-04-27T08:02:19.145Z,101461.38
2023-04-27T08:04:47.786Z,101455.72
2023-04-27T08:07:16.034Z,101448.63
2023-04-27T08:09:42.995Z,101449.09
2023-04-27T08:12:09.449Z,101454.66
2023-04-27T08:14:36.426Z,101457.84
2023-04-27T08:17:05.168Z,101457.03
2023-04-27T08:19:31.586Z,101459.78
2023-04-27T08:21:57.933Z,101452.88
2023-04-27T08:24:24.244Z,101454.03
2023-04-27T08:26:50.672Z,101456.69
2023-04-27T08:29:26.990Z,101453.38
2023-04-27T08:31:56.962Z,101455.31
2023-04-27T08:34:23.741Z,101454.44
2023-04-27T08:36:59.027Z,101456.28
2023-04-27T08:39:25.546Z,101451.78
2023-04-27T08:41:52.418Z,101459.13
2023-04-27T08:44:21.476Z,101459.72
2023-04-27T08:46:48.022Z,101445.69
2023-04-27T08:49:16.866Z,101455.63
2023-04-27T08:51:44.124Z,101444.28
2023-04-27T08:54:11.299Z,101435.81
2023-04-27T08:56:37.780Z,101446.44
2023-04-27T08:59:04.410Z,101443.88
2023-04-27T09:01:32.373Z,101440.50
2023-04-27T09:04:01.307Z,101444.06
2023-04-27T09:06:32.757Z,101443.94
2023-04-27T09:09:00.059Z,101452.25
2023-04-27T09:11:38.698Z,101441.28
2023-04-27T09:14:20.674Z,101446.09
2023-04-27T09:16:56.169Z,101442.09
2023-04-27T09:19:28.697Z,101449.00
2023-04-27T09:22:14.998Z,101442.66
2023-04-27T09:24:53.625Z,101440.41
2023-04-27T09:27:22.087Z,101441.81
2023-04-27T09:29:48.637Z,101436.63
2023-04-27T09:32:20.666Z,101438.53
2023-04-27T09:34:47.296Z,101430.91
2023-04-27T09:37:14.501Z,101430.13
2023-04-27T09:39:42.362Z,101417.28
2023-04-27T09:42:09.397Z,101418.56
2023-04-27T09:44:36.094Z,101416.91
2023-04-27T09:47:02.893Z,101406.41
2023-04-27T09:49:29.650Z,101409.22
2023-04-27T09:51:58.997Z,101403.25
2023-04-27T09:54:33.520Z,101396.81
2023-04-27T09:57:23.298Z,101404.88
2023-04-27T10:00:11.996Z,101400.56
2023-04-27T10:02:56.261Z,101395.84
2023-04-27T10:05:36.819Z,101397.13
2023-04-27T10:08:05.768Z,101388.47
2023-04-27T10:10:42.981Z,101393.63
2023-04-27T10:13:26.138Z,101397.63
2023-04-27T10:15:55.374Z,101386.41
2023-04-27T10:18:27.874Z,101385.09
2023-04-27T10:20:54.500Z,101380.78
2023-04-27T10:23:28.948Z,101390.00
2023-04-27T10:25:56.222Z,101380.50
2023-04-27T10:28:22.989Z,101395.78
2023-04-27T10:30:49.977Z,101381.88
2023-04-27T10:33:22.566Z,101383.13
2023-04-27T10:35:59.018Z,101377.59
2023-04-27T10:38:30.297Z,101377.34
2023-04-27T10:41:05.436Z,101372.25
2023-04-27T10:43:36.415Z,101370.81
2023-04-27T10:46:15.879Z,101362.84
2023-04-27T10:48:43.684Z,101356.16
2023-04-27T10:51:14.986Z,101357.78
2023-04-27T10:53:41.922Z,101362.56
2023-04-27T10:56:09.947Z,101356.53
2023-04-27T11:01:08.521Z,101351.72
2023-04-27T11:03:35.633Z,101356.25
2023-04-27T11:06:05.956Z,101348.63
2023-04-27T11:08:34.266Z,101351.53
2023-04-27T11:11:01.876Z,101343.16
2023-04-27T11:13:28.629Z,101334.84
2023-04-27T11:15:57.497Z,101338.13
2023-04-27T11:18:26.716Z,101338.47
2023-04-27T11:20:55.071Z,101334.13
2023-04-27T11:23:26.657Z,101342.88
2023-04-27T11:25:53.457Z,101340.53
2023-04-27T11:28:20.461Z,101336.84
2023-04-27T11:30:47.580Z,101333.94
2023-04-27T11:33:14.013Z,101347.53
2023-04-27T11:35:40.745Z,101345.44
2023-04-27T11:38:07.172Z,101348.63
2023-04-27T11:40:35.912Z,101342.56
2023-04-27T11:43:05.277Z,101343.41
2023-04-27T11:45:32.034Z,101339.75
2023-04-27T11:47:59.321Z,101338.59
2023-04-27T11:50:26.712Z,101334.59
2023-04-27T11:52:53.580Z,101336.22
2023-04-27T11:55:24.677Z,101331.41
2023-04-27T11:57:58.676Z,101338.66
2023-04-27T12:00:25.448Z,101336.31
2023-04-27T12:02:52.187Z,101337.84
2023-04-27T12:05:20.023Z,101328.97
2023-04-27T12:07:46.847Z,101323.38
2023-04-27T12:10:13.271Z,101331.78
2023-04-27T12:12:39.717Z,101327.00
2023-04-27T12:15:08.630Z,101329.41
2023-04-27T12:17:35.136Z,101325.91
2023-04-27T12:20:02.031Z,101322.72
2023-04-27T12:22:28.781Z,101324.81
2023-04-27T12:24:55.902Z,101318.38
2023-04-27T12:27:22.261Z,101321.63
2023-04-27T12:29:48.610Z,101312.00
2023-04-27T12:32:15.321Z,101313.66
2023-04-27T12:34:42.840Z,101308.03
2023-04-27T12:37:09.167Z,101302.44
2023-04-27T12:39:35.487Z,101306.06
2023-04-27T12:42:02.345Z,101310.03
2023-04-27T12:44:28.688Z,101301.63
2023-04-27T12:46:55.337Z,101302.44
2023-04-27T12:49:22.085Z,101299.25
2023-04-27T12:51:51.618Z,101298.88
2023-04-27T12:54:18.212Z,101298.97
2023-04-27T12:56:44.809Z,101292.97
2023-04-27T12:59:11.234Z,101292.25
2023-04-27T13:01:37.676Z,101293.94
2023-04-27T13:04:05.827Z,101289.22
2023-04-27T13:06:32.551Z,101285.75
2023-04-27T13:08:59.385Z,101282.22
2023-04-27T13:11:26.800Z,101278.66
2023-04-27T13:13:54.787Z,101280.28
2023-04-27T13:16:22.599Z,101281.19
2023-04-27T13:18:51.896Z,101275.66
2023-04-27T13:21:18.733Z,101276.94
2023-04-27T13:23:45.193Z,101278.16
2023-04-27T13:26:11.692Z,101276.63
2023-04-27T13:28:38.223Z,101269.81
2023-04-27T13:31:05.630Z,101267.44
2023-04-27T13:33:33.726Z,101265.50
2023-04-27T13:36:03.212Z,101270.84
2023-04-27T13:38:29.581Z,101263.28
2023-04-27T13:40:56.291Z,101264.59
2023-04-27T13:43:22.746Z,101258.25
2023-04-27T13:45:50.794Z,101258.31
2023-04-27T13:48:17.256Z,101253.59
2023-04-27T13:50:43.666Z,101248.38
2023-04-27T13:53:10.094Z,101246.47
2023-04-27T13:55:37.147Z,101247.69
2023-04-27T13:58:03.752Z,101244.16
2023-04-27T14:00:33.395Z,101244.56
2023-04-27T14:03:01.420Z,101245.03
2023-04-27T14:05:27.868Z,101239.81
2023-04-27T14:07:54.413Z,101233.47
2023-04-27T14:10:22.472Z,101233.09
2023-04-27T14:12:49.299Z,101231.59
2023-04-27T14:15:16.041Z,101234.84
2023-04-27T14:17:42.607Z,101229.28
2023-04-27T14:20:09.063Z,101232.13
2023-04-27T14:22:36.439Z,101237.00
2023-04-27T14:25:03.265Z,101231.00
2023-04-27T14:27:31.252Z,101222.19
2023-04-27T14:29:57.590Z,101222.28
2023-04-27T14:32:24.229Z,101219.47
2023-04-27T14:34:50.782Z,101225.91
2023-04-27T14:37:17.634Z,101216.28
2023-04-27T14:39:47.132Z,101217.91
2023-04-27T14:42:13.568Z,101207.47
2023-04-27T14:44:39.897Z,101212.69
2023-04-27T14:47:06.684Z,101208.28
2023-04-27T14:49:33.638Z,101191.38
2023-04-27T14:52:03.906Z,101195.81
2023-04-27T14:54:31.375Z,101197.47
2023-04-27T14:56:59.032Z,101197.47
2023-04-27T14:59:25.517Z,101195.06
2023-04-27T15:01:52.265Z,101198.69
2023-04-27T15:04:19.064Z,101191.88
2023-04-27T15:06:46.127Z,101188.63
2023-04-27T15:09:13.492Z,101189.44
2023-04-27T15:11:40.086Z,101185.81
2023-04-27T15:14:07.317Z,101177.00
2023-04-27T15:16:33.950Z,101187.06
2023-04-27T15:19:00.402Z,101179.81
2023-04-27T15:21:27.082Z,101175.38
2023-04-27T15:23:53.386Z,101169.75
2023-04-27T15:26:19.915Z,101166.94
2023-04-27T15:28:46.611Z,101164.53
2023-04-27T15:31:13.258Z,101162.94
2023-04-27T15:33:39.832Z,101157.31
2023-04-27T15:36:06.661Z,101150.88
2023-04-27T15:38:32.999Z,101155.69
2023-04-27T15:40:59.364Z,101154.47
2023-04-27T15:43:25.762Z,101161.25
2023-04-27T15:45:52.136Z,101160.44
2023-04-27T15:48:18.474Z,101159.25
2023-04-27T15:50:46.503Z,101156.44
2023-04-27T15:53:12.966Z,101157.63
2023-04-27T15:55:39.564Z,101150.00
2023-04-27T15:58:06.102Z,101154.00
2023-04-27T16:00:33.649Z,101143.97
2023-04-27T16:03:00.451Z,101144.75
2023-04-27T16:05:27.298Z,101142.34
2023-04-27T16:07:53.620Z,101143.97
2023-04-27T16:10:20.364Z,101137.88
2023-04-27T16:12:46.977Z,101146.31
2023-04-27T16:15:13.437Z,101140.28
2023-04-27T16:17:40.111Z,101135.47
2023-04-27T16:20:07.269Z,101133.03
2023-04-27T16:22:34.620Z,101127.41
2023-04-27T16:25:01.547Z,101124.94
2023-04-27T16:27:28.171Z,101116.88
2023-04-27T16:29:55.278Z,101117.25
2023-04-27T16:32:22.042Z,101115.25
2023-04-27T16:34:48.801Z,101114.84
2023-04-27T16:37:15.367Z,101116.38
2023-04-27T16:39:41.972Z,101123.63
2023-04-27T16:42:08.316Z,101124.81
2023-04-27T16:44:34.913Z,101121.22
2023-04-27T16:47:01.378Z,101117.59
2023-04-27T16:49:27.947Z,101120.41
2023-04-27T16:51:56.101Z,101115.13
2023-04-27T16:54:22.705Z,101117.94
2023-04-27T16:56:50.146Z,101111.91
2023-04-27T16:59:17.115Z,101105.47
2023-04-27T17:01:43.711Z,101105.88
2023-04-27T17:04:10.757Z,101111.03
2023-04-27T17:06:37.430Z,101111.41
2023-04-27T17:09:04.873Z,101116.59
2023-04-27T17:11:31.668Z,101112.97
2023-04-27T17:13:58.144Z,101116.19
2023-04-27T17:16:26.964Z,101112.94
2023-04-27T17:18:54.374Z,101116.13
2023-04-27T17:21:22.893Z,101107.66
2023-04-27T17:23:50.671Z,101107.66
2023-04-27T17:26:20.001Z,101100.03
2023-04-27T17:28:48.737Z,101102.75
2023-04-27T17:31:18.290Z,101096.66
2023-04-27T17:33:46.376Z,101101.03
2023-04-27T17:36:12.981Z,101102.97
2023-04-27T17:38:39.568Z,101099.72
2023-04-27T17:41:06.079Z,101098.47
2023-04-27T17:43:32.528Z,101094.81
2023-04-27T17:45:59.176Z,101090.34
2023-04-27T17:48:25.861Z,101085.13
2023-04-27T17:50:53.552Z,101083.91
2023-04-27T17:53:20.158Z,101072.19
2023-04-27T17:55:47.657Z,101074.19
2023-04-27T17:58:15.424Z,101070.16
2023-04-27T18:00:43.166Z,101070.50
2023-04-27T18:03:11.457Z,101063.66
2023-04-27T18:05:38.096Z,101066.03
2023-04-27T18:08:04.764Z,101059.19
2023-04-27T18:10:31.505Z,101057.91
2023-04-27T18:12:58.083Z,101057.03
2023-04-27T18:15:24.512Z,101051.00
2023-04-27T18:17:51.020Z,101055.34
2023-04-27T18:20:17.649Z,101056.13
2023-04-27T18:22:44.344Z,101046.44
2023-04-27T18:25:11.085Z,101049.97
2023-04-27T18:27:37.905Z,101050.34
2023-04-27T18:30:07.904Z,101055.53
2023-04-27T18:32:35.061Z,101053.09
2023-04-27T18:35:02.307Z,101048.66
2023-04-27T18:37:28.855Z,101045.41
2023-04-27T18:39:55.604Z,101044.59
2023-04-27T18:42:23.348Z,101050.97
2023-04-27T18:44:54.559Z,101056.97
2023-04-27T18:47:21.727Z,101046.94
2023-04-27T18:49:48.530Z,101045.66
2023-04-27T18:52:14.898Z,101046.84
2023-04-27T18:54:42.064Z,101045.59
2023-04-27T18:57:08.761Z,101046.34
2023-04-27T18:59:37.627Z,101056.72
2023-04-27T19:02:04.270Z,101061.06
2023-04-27T19:04:31.270Z,101057.00
2023-04-27T19:06:57.724Z,101054.94
2023-04-27T19:09:24.327Z,101044.47
2023-04-27T19:11:59.995Z,101050.81
2023-04-27T19:14:30.091Z,101053.19
2023-04-27T19:16:56.800Z,101041.53
2023-04-27T19:19:23.677Z,101043.44
2023-04-27T19:21:50.097Z,101041.81
2023-04-27T19:24:16.726Z,101043.75
2023-04-27T19:26:44.354Z,101038.50
2023-04-27T19:29:10.779Z,101034.44
2023-04-27T19:31:37.215Z,101034.44
2023-04-27T19:34:04.462Z,101028.78
2023-04-27T19:36:31.851Z,101032.31
2023-04-27T19:38:58.436Z,101039.47
2023-04-27T19:41:25.592Z,101028.63
2023-04-27T19:43:52.015Z,101021.78
2023-04-27T19:46:18.442Z,101030.94
2023-04-27T19:48:44.926Z,101026.03
2023-04-27T19:51:11.639Z,101024.44
2023-04-27T19:53:38.364Z,101022.38
2023-04-27T19:56:05.072Z,101029.16
2023-04-27T19:58:31.720Z,101023.09
2023-04-27T20:00:58.079Z,101022.66
2023-04-27T20:03:24.663Z,101028.63
2023-04-27T20:05:51.586Z,101021.78
2023-04-27T20:08:18.114Z,101022.94
2023-04-27T20:10:44.698Z,101014.06
2023-04-27T20:13:11.211Z,101016.44
2023-04-27T20:15:37.892Z,101008.38
2023-04-27T20:18:04.487Z,101007.97
2023-04-27T20:20:30.822Z,101010.28
2023-04-27T20:22:57.396Z,101007.88
2023-04-27T20:25:25.819Z,100997.38
2023-04-27T20:27:54.557Z,100996.56
2023-04-27T20:30:21.084Z,100988.53
2023-04-27T20:32:47.652Z,100996.53
2023-04-27T20:35:14.210Z,100988.47
2023-04-27T20:37:41.911Z,100984.03
2023-04-27T20:40:12.635Z,100990.47
2023-04-27T20:42:40.598Z,100986.03
2023-04-27T20:45:10.132Z,100983.59
2023-04-27T20:47:36.881Z,100986.41
2023-04-27T20:50:04.080Z,100984.75
2023-04-27T20:52:33.838Z,100980.72
2023-04-27T20:55:00.965Z,100975.13
2023-04-27T20:57:27.276Z,100971.50
2023-04-27T20:59:53.620Z,100969.88
2023-04-27T21:02:20.304Z,100978.66
2023-04-27T21:04:47.048Z,100969.44
2023-04-27T21:07:13.787Z,100970.25
2023-04-27T21:09:40.346Z,100964.63
2023-04-27T21:12:06.858Z,100970.25
2023-04-27T21:14:33.737Z,100963.00
2023-04-27T21:17:00.829Z,100967.81
2023-04-27T21:19:27.429Z,100969.00
2023-04-27T21:21:54.085Z,100963.38
2023-04-27T21:24:20.477Z,100954.53
2023-04-27T21:26:46.922Z,100946.91
2023-04-27T21:29:13.531Z,100944.50
2023-04-27T21:31:40.084Z,100936.91
2023-04-27T21:34:06.521Z,100933.28
2023-04-27T21:36:33.102Z,100928.06
2023-04-27T21:38:59.727Z,100920.84
2023-04-27T21:41:26.418Z,100924.00
2023-04-27T21:43:52.824Z,100908.38
2023-04-27T21:46:19.233Z,100908.75
2023-04-27T21:48:45.932Z,100902.31
2023-04-27T21:51:12.266Z,100898.25
2023-04-27T21:53:38.631Z,100900.25
2023-04-27T21:56:05.867Z,100893.84
2023-04-27T21:58:32.180Z,100881.81
2023-04-27T22:00:58.532Z,100887.44
2023-04-27T22:03:25.092Z,100882.19
2023-04-27T22:05:52.755Z,100877.75
2023-04-27T22:08:19.396Z,100868.53
2023-04-27T22:10:46.968Z,100874.53
2023-04-27T22:13:18.259Z,100870.91
2023-04-27T22:15:45.714Z,100865.66
2023-04-27T22:18:12.304Z,100862.84
2023-04-27T22:20:38.904Z,100859.63
2023-04-27T22:23:05.402Z,100856.41
2023-04-27T22:25:33.631Z,100853.13
2023-04-27T22:28:00.021Z,100843.91
2023-04-27T22:30:31.146Z,100841.84
2023-04-27T22:32:58.071Z,100842.22
2023-04-27T22:35:27.582Z,100841.34
2023-04-27T22:37:55.760Z,100835.31
2023-04-27T22:40:22.953Z,100828.44
2023-04-27T22:42:49.537Z,100826.00
2023-04-27T22:45:16.476Z,100819.19
2023-04-27T22:47:44.518Z,100820.72
2023-04-27T22:50:12.185Z,100817.03
2023-04-27T22:52:42.093Z,100823.81
2023-04-27T22:55:09.367Z,100820.53
2023-04-27T22:57:36.005Z,100812.53
2023-04-27T23:00:05.169Z,100818.50
2023-04-27T23:02:32.353Z,100800.44
2023-04-27T23:04:59.064Z,100805.22
2023-04-27T23:07:25.510Z,100812.00
2023-04-27T23:09:52.841Z,100805.97
2023-04-27T23:12:20.598Z,100808.78
2023-04-27T23:14:47.193Z,100813.19
2023-04-27T23:17:15.253Z,100814.38
2023-04-27T23:19:41.925Z,100811.56
2023-04-27T23:22:08.393Z,100803.19
2023-04-27T23:24:34.796Z,100803.97
2023-04-27T23:27:01.469Z,100802.34
2023-04-27T23:29:27.910Z,100797.56
2023-04-27T23:31:54.340Z,100793.13
2023-04-27T23:34:23.372Z,100783.94
2023-04-27T23:36:49.931Z,100780.31
2023-04-27T23:39:16.228Z,100771.91
2023-04-27T23:41:42.807Z,100771.13
2023-04-27T23:44:09.157Z,100762.72
2023-04-27T23:46:35.624Z,100766.25
2023-04-27T23:49:01.983Z,100760.19
2023-04-27T23:51:28.331Z,100764.50
2023-04-27T23:53:54.924Z,100757.69
2023-04-27T23:56:22.984Z,100756.41
2023-04-27T23:58:49.354Z,100757.16
